Monday, December 18, 2017, 11:39 AM EST
Back to Local

KAKR, Akron Fulton International

Location: Akron, OH, United States Lat: 41.033
Local Time: 11:39 AM EST (16:39 GMT) Lon: -81.467
Time Zone: US/Eastern Elev: 1069 ft

Show me the last for .
Show Coded

Time T Td Feel RH Dir Speed Gust Alt SLP Vis Weather Sky Remarks
2017-12-18 10:54 38 36 31 92 200° 9 - 30.00 30.02 2 BR OVC003 None
2017-12-18 10:26 38 36 31 92 200° 10 - 30.02 - 2 BR OVC004 None
2017-12-18 10:01 38 36 31 92 210° 9 - 30.03 - 3 BR OVC004 None
2017-12-18 09:54 38 36 31 92 210° 9 - 30.03 30.05 3 BR OVC005 None
2017-12-18 08:54 38 35 31 89 210° 9 - 30.02 30.04 5 BR OVC006 None
2017-12-18 08:06 38 33 31 82 220° 10 - 30.03 - 9 BKN009 OVC041 None
2017-12-18 07:54 38 33 31 82 200° 9 - 30.03 30.04 10 BKN011 OVC041 None
2017-12-18 06:54 38 32 32 78 200° 8 - 30.02 30.04 10 OVC042 24-hr Precip Total (7am): 0.01"
6-hr Min Temp (7am): 37.0°F
6-hr Max Temp (7am): 37.9°F
2017-12-18 05:54 38 32 32 78 200° 8 - 30.03 30.05 10 OVC044 None
2017-12-18 04:54 38 32 30 78 200° 12 - 30.03 30.05 10 OVC050 None
2017-12-18 03:54 38 32 32 78 200° 8 - 30.03 30.05 10 OVC050 None
2017-12-18 02:54 38 32 31 78 210° 9 - 30.04 30.06 10 OVC048 None
2017-12-18 01:54 38 32 32 78 200° 8 - 30.03 30.05 10 OVC041 None
2017-12-18 00:54 37 32 34 81 190° 3 - 30.06 30.07 10 FEW031 BKN050 OVC075 6-hr Precip Total (1am): 0.00"
6-hr Min Temp (1am): 36.0°F
6-hr Max Temp (1am): 37.9°F
2017-12-18 00:25 36 33 33 89 190° 3 - 30.07 - 10 BKN030 OVC041 None
2017-12-17 23:54 36 32 - 85 - Calm - 30.07 30.09 9 OVC027 24-hr Min Temp (12am): 19.9°F
24-hr Max Temp (12am): 39.9°F
2017-12-17 23:28 37 33 - 85 - Calm - 30.07 - 9 BKN029 OVC036 None
2017-12-17 22:54 37 33 34 85 190° 3 - 30.08 30.10 10 OVC036 1-hr Precip Total: Trace
2017-12-17 21:54 37 33 33 85 200° 5 - 30.08 30.11 9 -RA OVC031 1-hr Precip Total: Trace
6-hr Precip Total (10pm): 0.00"
2017-12-17 21:34 37 33 - 85 - Calm - 30.08 - 10 OVC030 1-hr Precip Total: Trace
2017-12-17 21:14 37 33 - 85 - Calm - 30.08 - 7 -RA OVC029 1-hr Precip Total: Trace
2017-12-17 20:54 37 33 34 85 190° 3 - 30.08 30.11 8 -RA OVC030 1-hr Precip Total: Trace
2017-12-17 19:54 38 32 31 78 200° 10 - 30.08 30.11 10 OVC035 None
2017-12-17 18:54 38 32 30 78 200° 12 - 30.06 30.09 10 OVC050 6-hr Precip Total (7pm): 0.01"
6-hr Min Temp (7pm): 37.0°F
6-hr Max Temp (7pm): 39.9°F
2017-12-17 17:54 37 32 29 81 190° 12 - 30.07 30.10 10 BKN060 OVC080 1-hr Precip Total: Trace
2017-12-17 16:54 38 32 32 78 210° 8 - 30.09 30.12 10 -RA BKN046 OVC070 1-hr Precip Total: 0.01"
2017-12-17 15:54 38 31 30 75 190° 13 - 30.09 30.12 8 -RA OVC060 1-hr Precip Total: Trace
6-hr Precip Total (4pm): 0.00"
2017-12-17 14:54 39 30 34 69 210° 7 - 30.09 30.12 10 OVC110 None
2017-12-17 13:54 40 30 36 67 170° 6 - 30.08 30.11 10 CLR None
2017-12-17 12:54 39 30 35 69 180° 6 - 30.11 30.14 10 CLR 6-hr Min Temp (1pm): 23.0°F
6-hr Max Temp (1pm): 39.0°F
2017-12-17 11:54 38 30 - 72 - Calm - 30.13 30.16 10 CLR None

Support USWX by starting your Amazon purchase here.